createdAt,value
2018-10-05T00:01:49.819Z,48.53
2018-10-05T00:06:51.975Z,53.40
2018-10-05T00:11:54.111Z,42.90
2018-10-05T00:16:56.280Z,41.87
2018-10-05T00:21:58.442Z,44.03
2018-10-05T00:27:00.587Z,50.07
2018-10-05T00:32:02.772Z,49.23
2018-10-05T00:37:05.167Z,55.13
2018-10-05T00:42:07.379Z,51.83
2018-10-05T00:47:09.562Z,61.30
2018-10-05T00:52:11.747Z,50.30
2018-10-05T00:57:13.827Z,60.23
2018-10-05T01:02:15.994Z,53.70
2018-10-05T01:07:18.136Z,53.77
2018-10-05T01:12:20.291Z,47.00
2018-10-05T01:17:22.425Z,52.50
2018-10-05T01:22:24.932Z,60.77
2018-10-05T01:27:27.051Z,48.73
2018-10-05T01:32:29.211Z,54.27
2018-10-05T01:37:31.314Z,54.67
2018-10-05T01:42:33.426Z,54.80
2018-10-05T01:47:35.522Z,51.17
2018-10-05T01:52:37.655Z,54.87
2018-10-05T01:57:39.792Z,46.80
2018-10-05T02:02:41.986Z,49.70
2018-10-05T02:07:44.041Z,60.97
2018-10-05T02:12:46.212Z,46.47
2018-10-05T02:17:48.334Z,58.47
2018-10-05T02:22:50.506Z,48.20
2018-10-05T02:27:52.633Z,62.23
2018-10-05T02:32:54.813Z,58.00
2018-10-05T02:37:56.919Z,51.27
2018-10-05T02:42:59.062Z,48.03
2018-10-05T02:48:01.169Z,48.70
2018-10-05T02:53:03.458Z,50.63
2018-10-05T02:58:05.961Z,51.40
2018-10-05T03:03:08.123Z,53.13
2018-10-05T03:08:10.227Z,48.83
2018-10-05T03:13:12.380Z,49.27
2018-10-05T03:18:14.538Z,47.50
2018-10-05T03:23:16.656Z,47.37
2018-10-05T03:28:18.769Z,48.20
2018-10-05T03:33:20.941Z,44.70
2018-10-05T03:38:23.079Z,54.73
2018-10-05T03:43:25.222Z,48.23
2018-10-05T03:48:27.323Z,51.20
2018-10-05T03:53:29.478Z,49.00
2018-10-05T03:58:31.611Z,49.37
2018-10-05T04:03:33.728Z,50.13
2018-10-05T04:08:36.096Z,42.97
2018-10-05T04:13:38.221Z,47.00
2018-10-05T04:18:40.419Z,39.88
2018-10-05T04:23:42.538Z,46.73
2018-10-05T04:28:44.648Z,48.50
2018-10-05T04:33:47.096Z,45.00
2018-10-05T04:38:49.256Z,45.27
2018-10-05T04:43:51.386Z,42.97
2018-10-05T04:48:53.508Z,51.93
2018-10-05T04:53:55.661Z,38.03
2018-10-05T04:58:58.056Z,47.43
2018-10-05T05:04:00.211Z,45.43
2018-10-05T05:09:02.427Z,56.03
2018-10-05T05:14:04.561Z,45.67
2018-10-05T05:19:06.713Z,50.53
2018-10-05T05:24:08.841Z,53.07
2018-10-05T05:29:11.006Z,51.37
2018-10-05T05:34:13.214Z,45.00
2018-10-05T05:39:15.373Z,51.30
2018-10-05T05:44:17.539Z,51.27
2018-10-05T05:49:19.687Z,56.07
2018-10-05T05:54:21.866Z,56.23
2018-10-05T05:59:23.943Z,51.30
2018-10-05T06:04:26.086Z,54.90
2018-10-05T06:09:28.236Z,55.63
2018-10-05T06:14:30.370Z,49.17
2018-10-05T06:19:32.495Z,48.67
2018-10-05T06:24:34.632Z,47.60
2018-10-05T06:29:36.801Z,50.57
2018-10-05T06:34:38.979Z,54.60
2018-10-05T06:39:41.090Z,52.50
2018-10-05T06:44:43.179Z,40.93
2018-10-05T06:49:45.339Z,44.57
2018-10-05T06:54:47.471Z,42.45
2018-10-05T06:59:49.595Z,43.47
2018-10-05T07:04:52.063Z,43.63
2018-10-05T07:09:54.204Z,45.73
2018-10-05T07:14:56.342Z,48.63
2018-10-05T07:19:58.461Z,45.63
2018-10-05T07:25:00.607Z,41.37
2018-10-05T07:30:02.824Z,46.73
2018-10-05T07:35:05.076Z,49.77
2018-10-05T07:40:07.227Z,53.97
2018-10-05T07:45:09.338Z,42.47
2018-10-05T07:50:11.549Z,46.60
2018-10-05T07:55:13.669Z,54.20
2018-10-05T08:00:15.792Z,55.23
2018-10-05T08:05:17.913Z,40.90
2018-10-05T08:10:20.117Z,47.63
2018-10-05T08:15:22.246Z,54.43
2018-10-05T08:20:24.438Z,43.53
2018-10-05T08:25:26.582Z,51.40
2018-10-05T08:30:28.732Z,45.50
2018-10-05T08:35:30.915Z,50.20
2018-10-05T08:40:33.122Z,42.53
2018-10-05T08:45:35.319Z,46.30
2018-10-05T08:50:37.480Z,44.77
2018-10-05T08:55:39.636Z,44.60
2018-10-05T09:00:42.603Z,38.90
2018-10-05T09:05:44.827Z,41.33
2018-10-05T09:10:46.990Z,43.53
2018-10-05T09:15:49.151Z,40.27
2018-10-05T09:20:51.321Z,44.17
2018-10-05T09:25:53.511Z,41.90
2018-10-05T09:30:55.684Z,39.03
2018-10-05T09:35:57.882Z,47.83
2018-10-05T09:41:00.104Z,44.93
2018-10-05T09:46:02.275Z,44.30
2018-10-05T09:51:04.434Z,40.07
2018-10-05T09:56:06.655Z,37.87
2018-10-05T10:01:14.650Z,39.07
2018-10-05T10:06:16.776Z,42.07
2018-10-05T10:11:18.921Z,40.20
2018-10-05T10:16:21.111Z,36.03
2018-10-05T10:21:23.252Z,36.50
2018-10-05T10:26:25.424Z,37.53
2018-10-05T10:31:27.548Z,32.83
2018-10-05T10:36:29.760Z,40.33
2018-10-05T10:41:31.897Z,44.97
2018-10-05T10:46:34.204Z,35.27
2018-10-05T10:51:36.383Z,37.37
2018-10-05T10:56:38.525Z,28.93
2018-10-05T11:01:40.642Z,34.33
2018-10-05T11:06:42.766Z,30.80
2018-10-05T11:11:44.925Z,26.60
2018-10-05T11:16:47.088Z,36.00
2018-10-05T11:21:49.245Z,32.73
2018-10-05T11:26:51.427Z,30.97
2018-10-05T11:31:53.551Z,43.17
2018-10-05T11:36:55.769Z,31.80
2018-10-05T11:41:57.954Z,27.07
2018-10-05T11:47:00.138Z,26.67
2018-10-05T11:52:02.281Z,34.33
2018-10-05T11:57:04.472Z,21.73
2018-10-05T12:02:06.642Z,27.87
2018-10-05T12:07:08.790Z,22.03
2018-10-05T12:12:10.931Z,19.50
2018-10-05T12:17:13.103Z,18.93
2018-10-05T12:22:15.261Z,18.33
2018-10-05T12:27:17.401Z,21.47
2018-10-05T12:32:19.595Z,16.27
2018-10-05T12:37:21.780Z,11.83
2018-10-05T12:42:23.972Z,23.63
2018-10-05T12:47:26.172Z,6.07
2018-10-05T12:52:28.430Z,4.80
2018-10-05T12:57:30.584Z,6.50
2018-10-05T13:02:32.708Z,3.63
2018-10-05T13:07:35.049Z,7.07
2018-10-05T13:12:37.216Z,6.03
2018-10-05T13:17:39.448Z,6.67
2018-10-05T13:22:41.600Z,10.03
2018-10-05T13:27:43.876Z,6.10
2018-10-05T13:32:46.032Z,4.30
2018-10-05T13:37:48.292Z,6.50
2018-10-05T13:42:50.492Z,5.10
2018-10-05T13:47:52.619Z,3.77
2018-10-05T13:52:54.788Z,3.23
2018-10-05T13:57:56.959Z,3.97
2018-10-05T14:02:59.145Z,4.03
2018-10-05T14:08:01.302Z,4.50
2018-10-05T14:13:03.508Z,4.97
2018-10-05T14:18:05.713Z,7.50
2018-10-05T14:23:07.873Z,6.67
2018-10-05T14:28:09.980Z,9.00
2018-10-05T14:33:12.434Z,5.67
2018-10-05T14:38:14.658Z,6.30
2018-10-05T14:43:16.835Z,2.70
2018-10-05T14:48:19.008Z,5.97
2018-10-05T14:53:21.166Z,4.90
2018-10-05T14:58:23.347Z,6.03
2018-10-05T15:03:25.444Z,4.77
2018-10-05T15:08:27.642Z,4.27
2018-10-05T15:13:29.806Z,2.30
2018-10-05T15:18:32.025Z,3.20
2018-10-05T15:23:34.181Z,4.20
2018-10-05T15:28:36.344Z,6.20
2018-10-05T15:33:38.528Z,2.00
2018-10-05T15:38:40.767Z,3.37
2018-10-05T15:43:42.958Z,6.17
2018-10-05T15:48:45.111Z,5.67
2018-10-05T15:53:47.311Z,2.50
2018-10-05T15:58:49.514Z,4.60
2018-10-05T16:03:51.683Z,2.10
2018-10-05T16:08:53.850Z,4.07
2018-10-05T16:13:56.024Z,3.50
2018-10-05T16:18:58.158Z,2.13
2018-10-05T16:24:01.597Z,4.10
2018-10-05T16:29:04.063Z,2.50
2018-10-05T16:34:06.413Z,2.40
2018-10-05T16:39:10.022Z,2.37
2018-10-05T16:44:12.250Z,2.77
2018-10-05T16:49:14.460Z,6.57
2018-10-05T16:54:16.634Z,4.97
2018-10-05T16:59:18.804Z,3.00
2018-10-05T17:04:21.036Z,3.50
2018-10-05T17:09:23.215Z,2.80
2018-10-05T17:14:25.423Z,3.53
2018-10-05T17:19:27.583Z,3.70
2018-10-05T17:24:29.779Z,3.07
2018-10-05T17:29:31.962Z,5.77
2018-10-05T17:34:34.126Z,3.70
2018-10-05T17:39:36.356Z,4.33
2018-10-05T17:44:38.553Z,4.93
2018-10-05T17:49:40.725Z,4.60
2018-10-05T17:54:42.911Z,5.30
2018-10-05T17:59:45.048Z,8.93
2018-10-05T18:04:47.182Z,7.23
2018-10-05T18:09:49.448Z,5.90
2018-10-05T18:14:51.681Z,5.43
2018-10-05T18:19:53.849Z,6.80
2018-10-05T18:24:56.041Z,4.57
2018-10-05T18:29:58.259Z,5.33
2018-10-05T18:35:00.478Z,8.33
2018-10-05T18:40:02.776Z,6.80
2018-10-05T18:45:05.038Z,9.63
2018-10-05T18:50:07.485Z,11.37
2018-10-05T18:55:09.685Z,11.60
2018-10-05T19:00:12.018Z,8.40
2018-10-05T19:05:14.228Z,14.00
2018-10-05T19:10:16.472Z,11.33
2018-10-05T19:15:18.719Z,8.20
2018-10-05T19:20:20.994Z,7.20
2018-10-05T19:25:23.281Z,12.43
2018-10-05T19:30:25.877Z,10.40
2018-10-05T19:35:28.157Z,6.80
2018-10-05T19:40:30.465Z,7.40
2018-10-05T19:45:32.710Z,10.20
2018-10-05T19:50:34.917Z,5.47
2018-10-05T19:55:37.116Z,8.87
2018-10-05T20:00:39.304Z,3.30
2018-10-05T20:05:41.590Z,4.57
2018-10-05T20:10:43.852Z,5.58
2018-10-05T20:15:46.072Z,7.20
2018-10-05T20:20:48.284Z,6.20
2018-10-05T20:25:50.690Z,4.50
2018-10-05T20:30:52.895Z,4.67
2018-10-05T20:35:55.214Z,5.20
2018-10-05T20:40:57.346Z,5.73
2018-10-05T20:45:59.528Z,7.77
2018-10-05T20:51:01.716Z,8.03
2018-10-05T20:56:03.909Z,4.50
2018-10-05T21:01:06.309Z,4.00
2018-10-05T21:06:08.502Z,5.93
2018-10-05T21:11:10.676Z,7.97
2018-10-05T21:16:12.827Z,8.63
2018-10-05T21:21:15.067Z,10.30
2018-10-05T21:26:17.243Z,6.70
2018-10-05T21:31:19.479Z,7.03
2018-10-05T21:36:21.663Z,8.10
2018-10-05T21:41:23.912Z,11.83
2018-10-05T21:46:26.120Z,6.10
2018-10-05T21:51:28.304Z,6.43
2018-10-05T21:56:30.602Z,7.43
2018-10-05T22:01:32.752Z,8.07
2018-10-05T22:06:34.930Z,7.90
2018-10-05T22:11:37.055Z,8.40
2018-10-05T22:16:39.232Z,5.90
2018-10-05T22:21:41.371Z,7.30
2018-10-05T22:26:43.514Z,10.00
2018-10-05T22:31:45.682Z,10.30
2018-10-05T22:36:47.884Z,8.40
2018-10-05T22:41:50.090Z,7.00
2018-10-05T22:46:52.499Z,9.33
2018-10-05T22:51:54.638Z,7.93
2018-10-05T22:56:56.763Z,12.27
2018-10-05T23:01:58.948Z,9.17
2018-10-05T23:07:01.093Z,6.03
2018-10-05T23:12:03.271Z,10.87
2018-10-05T23:17:05.667Z,6.53
2018-10-05T23:22:07.840Z,6.53
2018-10-05T23:27:10.007Z,10.63
2018-10-05T23:32:12.121Z,8.60
2018-10-05T23:37:14.285Z,6.87
2018-10-05T23:42:16.448Z,8.10
2018-10-05T23:47:18.570Z,11.40
2018-10-05T23:52:40.703Z,9.00
2018-10-05T23:57:43.189Z,9.10
